sensor_id;sensor_type;location;lat;lon;timestamp;pressure;altitude;pressure_sealevel;temperature;humidity
32761;BME280;19126;47.472;7.850;2023-06-22T00:01:18;96568.94;;;17.51;23.25
32761;BME280;19126;47.472;7.850;2023-06-22T00:03:47;96565.94;;;17.47;22.10
32761;BME280;19126;47.472;7.850;2023-06-22T00:06:16;96572.72;;;17.43;22.67
32761;BME280;19126;47.472;7.850;2023-06-22T00:08:43;96576.41;;;17.42;21.81
32761;BME280;19126;47.472;7.850;2023-06-22T00:11:10;96576.59;;;17.40;21.57
32761;BME280;19126;47.472;7.850;2023-06-22T00:13:38;96572.75;;;17.36;21.54
32761;BME280;19126;47.472;7.850;2023-06-22T00:16:06;96574.81;;;17.34;22.00
32761;BME280;19126;47.472;7.850;2023-06-22T00:18:33;96588.34;;;17.33;21.22
32761;BME280;19126;47.472;7.850;2023-06-22T00:21:00;96591.44;;;17.30;21.56
32761;BME280;19126;47.472;7.850;2023-06-22T00:23:29;96592.06;;;17.25;21.73
32761;BME280;19126;47.472;7.850;2023-06-22T00:26:00;96590.03;;;17.20;21.43
32761;BME280;19126;47.472;7.850;2023-06-22T00:28:27;96593.53;;;17.21;20.99
32761;BME280;19126;47.472;7.850;2023-06-22T00:30:55;96601.69;;;17.19;20.95
32761;BME280;19126;47.472;7.850;2023-06-22T00:33:22;96601.91;;;17.18;20.50
32761;BME280;19126;47.472;7.850;2023-06-22T00:35:49;96593.56;;;17.14;20.18
32761;BME280;19126;47.472;7.850;2023-06-22T00:38:18;96594.81;;;17.11;20.43
32761;BME280;19126;47.472;7.850;2023-06-22T00:40:47;96598.28;;;17.12;20.54
32761;BME280;19126;47.472;7.850;2023-06-22T00:43:14;96595.25;;;17.08;20.47
32761;BME280;19126;47.472;7.850;2023-06-22T00:45:42;96585.28;;;17.04;20.32
32761;BME280;19126;47.472;7.850;2023-06-22T00:48:09;96588.16;;;17.02;20.20
32761;BME280;19126;47.472;7.850;2023-06-22T00:50:36;96590.00;;;17.02;20.34
32761;BME280;19126;47.472;7.850;2023-06-22T00:53:06;96595.09;;;17.03;20.31
32761;BME280;19126;47.472;7.850;2023-06-22T00:55:35;96594.50;;;17.01;19.47
32761;BME280;19126;47.472;7.850;2023-06-22T00:58:06;96591.84;;;17.01;19.79
32761;BME280;19126;47.472;7.850;2023-06-22T01:00:36;96592.28;;;16.98;19.36
32761;BME280;19126;47.472;7.850;2023-06-22T01:03:04;96580.84;;;16.97;19.25
32761;BME280;19126;47.472;7.850;2023-06-22T01:05:35;96584.91;;;16.93;19.89
32761;BME280;19126;47.472;7.850;2023-06-22T01:08:16;96586.38;;;16.89;19.88
32761;BME280;19126;47.472;7.850;2023-06-22T01:10:52;96584.16;;;16.86;19.53
32761;BME280;19126;47.472;7.850;2023-06-22T01:13:36;96587.84;;;16.85;19.14
32761;BME280;19126;47.472;7.850;2023-06-22T01:16:10;96589.69;;;16.84;18.94
32761;BME280;19126;47.472;7.850;2023-06-22T01:18:42;96589.53;;;16.79;19.22
32761;BME280;19126;47.472;7.850;2023-06-22T01:21:15;96586.47;;;16.76;19.32
32761;BME280;19126;47.472;7.850;2023-06-22T01:24:02;96587.72;;;16.73;19.56
32761;BME280;19126;47.472;7.850;2023-06-22T01:26:40;96581.22;;;16.69;19.18
32761;BME280;19126;47.472;7.850;2023-06-22T01:29:12;96580.81;;;16.65;19.00
32761;BME280;19126;47.472;7.850;2023-06-22T01:31:41;96576.78;;;16.63;18.94
32761;BME280;19126;47.472;7.850;2023-06-22T01:34:09;96579.03;;;16.59;18.65
32761;BME280;19126;47.472;7.850;2023-06-22T01:36:38;96583.53;;;16.59;17.94
32761;BME280;19126;47.472;7.850;2023-06-22T01:39:06;96586.19;;;16.59;17.83
32761;BME280;19126;47.472;7.850;2023-06-22T01:41:37;96581.69;;;16.59;17.14
32761;BME280;19126;47.472;7.850;2023-06-22T01:44:06;96580.06;;;16.58;16.88
32761;BME280;19126;47.472;7.850;2023-06-22T01:46:36;96582.09;;;16.56;16.86
32761;BME280;19126;47.472;7.850;2023-06-22T01:49:05;96583.97;;;16.55;17.57
32761;BME280;19126;47.472;7.850;2023-06-22T01:51:33;96572.75;;;16.53;17.93
32761;BME280;19126;47.472;7.850;2023-06-22T01:54:01;96567.06;;;16.50;18.13
32761;BME280;19126;47.472;7.850;2023-06-22T01:56:29;96570.13;;;16.47;17.64
32761;BME280;19126;47.472;7.850;2023-06-22T01:59:04;96579.94;;;16.46;18.07
32761;BME280;19126;47.472;7.850;2023-06-22T02:01:43;96575.06;;;16.43;18.36
32761;BME280;19126;47.472;7.850;2023-06-22T02:04:17;96571.22;;;16.39;18.21
32761;BME280;19126;47.472;7.850;2023-06-22T02:06:47;96572.66;;;16.35;17.96
32761;BME280;19126;47.472;7.850;2023-06-22T02:09:20;96572.66;;;16.35;17.16
32761;BME280;19126;47.472;7.850;2023-06-22T02:11:51;96565.50;;;16.35;16.80
32761;BME280;19126;47.472;7.850;2023-06-22T02:14:21;96563.69;;;16.36;16.32
32761;BME280;19126;47.472;7.850;2023-06-22T02:16:51;96556.53;;;16.36;15.96
32761;BME280;19126;47.472;7.850;2023-06-22T02:19:23;96563.88;;;16.34;16.03
32761;BME280;19126;47.472;7.850;2023-06-22T02:21:50;96563.28;;;16.32;15.70
32761;BME280;19126;47.472;7.850;2023-06-22T02:24:18;96551.03;;;16.31;15.77
32761;BME280;19126;47.472;7.850;2023-06-22T02:26:45;96553.69;;;16.31;15.66
32761;BME280;19126;47.472;7.850;2023-06-22T02:29:12;96545.38;;;16.28;14.60
32761;BME280;19126;47.472;7.850;2023-06-22T02:31:40;96541.28;;;16.25;14.39
32761;BME280;19126;47.472;7.850;2023-06-22T02:34:09;96539.66;;;16.24;14.73
32761;BME280;19126;47.472;7.850;2023-06-22T02:36:36;96544.94;;;16.31;14.81
32761;BME280;19126;47.472;7.850;2023-06-22T02:39:03;96542.53;;;16.22;15.00
32761;BME280;19126;47.472;7.850;2023-06-22T02:41:31;96539.28;;;16.20;14.70
32761;BME280;19126;47.472;7.850;2023-06-22T02:43:58;96536.47;;;16.15;15.07
32761;BME280;19126;47.472;7.850;2023-06-22T02:46:25;96536.88;;;16.12;14.73
32761;BME280;19126;47.472;7.850;2023-06-22T02:48:53;96534.44;;;16.10;14.45
32761;BME280;19126;47.472;7.850;2023-06-22T02:51:21;96535.47;;;16.09;14.68
32761;BME280;19126;47.472;7.850;2023-06-22T02:53:49;96533.84;;;16.08;14.89
32761;BME280;19126;47.472;7.850;2023-06-22T02:56:18;96532.44;;;16.06;14.20
32761;BME280;19126;47.472;7.850;2023-06-22T02:58:50;96529.97;;;16.04;14.15
32761;BME280;19126;47.472;7.850;2023-06-22T03:01:18;96539.97;;;16.02;14.51
32761;BME280;19126;47.472;7.850;2023-06-22T03:03:49;96521.84;;;15.99;14.92
32761;BME280;19126;47.472;7.850;2023-06-22T03:06:16;96526.13;;;16.00;14.19
32761;BME280;19126;47.472;7.850;2023-06-22T03:08:51;96524.31;;;16.01;14.32
32761;BME280;19126;47.472;7.850;2023-06-22T03:11:18;96525.31;;;16.00;14.72
32761;BME280;19126;47.472;7.850;2023-06-22T03:13:45;96524.31;;;16.01;14.45
32761;BME280;19126;47.472;7.850;2023-06-22T03:16:13;96520.44;;;15.96;14.20
32761;BME280;19126;47.472;7.850;2023-06-22T03:18:40;96528.00;;;15.93;14.49
32761;BME280;19126;47.472;7.850;2023-06-22T03:21:07;96517.63;;;15.91;14.79
32761;BME280;19126;47.472;7.850;2023-06-22T03:23:35;96510.47;;;15.92;14.31
32761;BME280;19126;47.472;7.850;2023-06-22T03:26:03;96511.50;;;15.91;14.72
32761;BME280;19126;47.472;7.850;2023-06-22T03:28:31;96503.75;;;15.89;14.01
32761;BME280;19126;47.472;7.850;2023-06-22T03:30:58;96505.78;;;15.87;14.78
32761;BME280;19126;47.472;7.850;2023-06-22T03:33:26;96501.50;;;15.86;14.54
32761;BME280;19126;47.472;7.850;2023-06-22T03:35:53;96510.06;;;15.88;14.15
32761;BME280;19126;47.472;7.850;2023-06-22T03:38:20;96503.34;;;15.92;14.07
32761;BME280;19126;47.472;7.850;2023-06-22T03:40:48;96501.94;;;15.90;14.07
32761;BME280;19126;47.472;7.850;2023-06-22T03:43:17;96500.50;;;15.87;14.31
32761;BME280;19126;47.472;7.850;2023-06-22T03:45:44;96502.31;;;15.87;14.35
32761;BME280;19126;47.472;7.850;2023-06-22T03:48:12;96504.13;;;15.86;14.86
32761;BME280;19126;47.472;7.850;2023-06-22T03:50:39;96501.31;;;15.88;14.65
32761;BME280;19126;47.472;7.850;2023-06-22T03:53:06;96501.31;;;15.88;14.20
32761;BME280;19126;47.472;7.850;2023-06-22T03:55:34;96501.31;;;15.88;14.89
32761;BME280;19126;47.472;7.850;2023-06-22T03:58:02;96499.28;;;15.90;14.11
32761;BME280;19126;47.472;7.850;2023-06-22T04:00:33;96502.75;;;15.90;14.66
32761;BME280;19126;47.472;7.850;2023-06-22T04:03:00;96502.13;;;15.88;14.79
32761;BME280;19126;47.472;7.850;2023-06-22T04:05:27;96499.06;;;15.85;14.57
32761;BME280;19126;47.472;7.850;2023-06-22T04:07:54;96499.88;;;15.85;14.49
32761;BME280;19126;47.472;7.850;2023-06-22T04:10:22;96501.09;;;15.89;13.93
32761;BME280;19126;47.472;7.850;2023-06-22T04:12:49;96510.47;;;15.92;13.59
32761;BME280;19126;47.472;7.850;2023-06-22T04:15:16;96509.63;;;15.98;13.44
32761;BME280;19126;47.472;7.850;2023-06-22T04:17:45;96500.66;;;15.99;13.58
32761;BME280;19126;47.472;7.850;2023-06-22T04:20:12;96508.19;;;16.02;13.37
32761;BME280;19126;47.472;7.850;2023-06-22T04:22:40;96509.38;;;16.06;13.78
32761;BME280;19126;47.472;7.850;2023-06-22T04:25:07;96506.72;;;16.06;13.60
32761;BME280;19126;47.472;7.850;2023-06-22T04:27:35;96508.16;;;16.09;14.04
32761;BME280;19126;47.472;7.850;2023-06-22T04:30:04;96503.03;;;16.14;13.58
32761;BME280;19126;47.472;7.850;2023-06-22T04:32:32;96502.97;;;16.21;13.26
32761;BME280;19126;47.472;7.850;2023-06-22T04:35:04;96508.25;;;16.28;13.37
32761;BME280;19126;47.472;7.850;2023-06-22T04:37:32;96505.72;;;16.39;13.93
32761;BME280;19126;47.472;7.850;2023-06-22T04:40:00;96504.50;;;16.42;13.75
32761;BME280;19126;47.472;7.850;2023-06-22T04:42:27;96507.53;;;16.46;13.87
32761;BME280;19126;47.472;7.850;2023-06-22T04:44:55;96513.81;;;16.51;13.15
32761;BME280;19126;47.472;7.850;2023-06-22T04:47:22;96510.06;;;16.59;13.12
32761;BME280;19126;47.472;7.850;2023-06-22T04:49:49;96522.88;;;16.69;13.79
32761;BME280;19126;47.472;7.850;2023-06-22T04:52:18;96509.53;;;16.76;13.07
32761;BME280;19126;47.472;7.850;2023-06-22T04:54:46;96505.59;;;16.85;12.86
32761;BME280;19126;47.472;7.850;2023-06-22T04:57:16;96502.91;;;16.92;12.93
32761;BME280;19126;47.472;7.850;2023-06-22T04:59:43;96503.69;;;16.99;12.52
32761;BME280;19126;47.472;7.850;2023-06-22T05:02:11;96489.53;;;17.05;12.77
32761;BME280;19126;47.472;7.850;2023-06-22T05:04:38;96491.75;;;17.08;13.03
32761;BME280;19126;47.472;7.850;2023-06-22T05:07:06;96494.91;;;17.17;13.86
32761;BME280;19126;47.472;7.850;2023-06-22T05:09:34;96496.06;;;17.28;13.55
32761;BME280;19126;47.472;7.850;2023-06-22T05:12:03;96491.44;;;17.42;13.46
32761;BME280;19126;47.472;7.850;2023-06-22T05:14:30;96499.00;;;17.57;13.90
32761;BME280;19126;47.472;7.850;2023-06-22T05:16:58;96496.72;;;17.79;14.49
32761;BME280;19126;47.472;7.850;2023-06-22T05:19:29;96497.31;;;18.00;15.73
32761;BME280;19126;47.472;7.850;2023-06-22T05:21:59;96497.47;;;18.17;16.40
32761;BME280;19126;47.472;7.850;2023-06-22T05:24:26;96495.31;;;18.26;19.01
32761;BME280;19126;47.472;7.850;2023-06-22T05:26:55;96498.25;;;18.48;23.51
32761;BME280;19126;47.472;7.850;2023-06-22T05:29:22;96495.44;;;18.62;30.40
32761;BME280;19126;47.472;7.850;2023-06-22T05:31:49;96500.28;;;18.77;39.30
32761;BME280;19126;47.472;7.850;2023-06-22T05:34:17;96507.38;;;18.95;47.12
32761;BME280;19126;47.472;7.850;2023-06-22T05:36:44;96508.69;;;19.04;54.98
32761;BME280;19126;47.472;7.850;2023-06-22T05:39:13;96504.63;;;19.13;63.79
32761;BME280;19126;47.472;7.850;2023-06-22T05:41:41;96507.41;;;19.18;67.79
32761;BME280;19126;47.472;7.850;2023-06-22T05:44:10;96516.41;;;19.29;71.02
32761;BME280;19126;47.472;7.850;2023-06-22T05:46:40;96509.13;;;19.37;77.57
32761;BME280;19126;47.472;7.850;2023-06-22T05:49:10;96499.63;;;19.53;78.60
32761;BME280;19126;47.472;7.850;2023-06-22T05:51:37;96504.00;;;19.59;84.81
32761;BME280;19126;47.472;7.850;2023-06-22T05:54:04;96506.63;;;19.71;87.23
32761;BME280;19126;47.472;7.850;2023-06-22T05:56:32;96500.59;;;19.75;92.31
32761;BME280;19126;47.472;7.850;2023-06-22T05:58:59;96496.44;;;19.80;93.22
32761;BME280;19126;47.472;7.850;2023-06-22T06:01:28;96496.53;;;19.85;94.37
32761;BME280;19126;47.472;7.850;2023-06-22T06:03:57;96498.63;;;19.95;93.02
32761;BME280;19126;47.472;7.850;2023-06-22T06:06:24;96494.53;;;20.04;94.25
32761;BME280;19126;47.472;7.850;2023-06-22T06:08:54;96492.38;;;20.18;96.12
32761;BME280;19126;47.472;7.850;2023-06-22T06:11:21;96490.59;;;20.53;97.37
32761;BME280;19126;47.472;7.850;2023-06-22T06:13:49;96491.50;;;20.92;95.43
32761;BME280;19126;47.472;7.850;2023-06-22T06:16:16;96484.31;;;21.32;97.37
32761;BME280;19126;47.472;7.850;2023-06-22T06:18:45;96486.81;;;21.78;100.00
32761;BME280;19126;47.472;7.850;2023-06-22T06:21:14;96490.63;;;22.10;100.00
32761;BME280;19126;47.472;7.850;2023-06-22T06:23:41;96493.78;;;22.57;100.00
32761;BME280;19126;47.472;7.850;2023-06-22T06:26:09;96498.94;;;23.01;100.00
32761;BME280;19126;47.472;7.850;2023-06-22T06:28:36;96498.94;;;23.39;100.00
32761;BME280;19126;47.472;7.850;2023-06-22T06:31:03;96505.81;;;23.73;100.00
32761;BME280;19126;47.472;7.850;2023-06-22T06:33:33;96522.59;;;24.06;100.00
32761;BME280;19126;47.472;7.850;2023-06-22T06:36:01;96529.31;;;24.03;100.00
32761;BME280;19126;47.472;7.850;2023-06-22T06:38:29;96558.81;;;24.03;100.00
32761;BME280;19126;47.472;7.850;2023-06-22T06:40:58;96594.69;;;23.92;100.00
32761;BME280;19126;47.472;7.850;2023-06-22T06:43:25;96637.53;;;23.81;100.00
32761;BME280;19126;47.472;7.850;2023-06-22T06:45:53;96658.97;;;23.76;100.00
32761;BME280;19126;47.472;7.850;2023-06-22T06:48:20;96670.16;;;23.68;100.00
32761;BME280;19126;47.472;7.850;2023-06-22T06:50:47;96679.00;;;23.63;100.00
32761;BME280;19126;47.472;7.850;2023-06-22T06:53:16;96682.47;;;23.64;100.00
32761;BME280;19126;47.472;7.850;2023-06-22T06:55:43;96695.72;;;23.76;100.00
32761;BME280;19126;47.472;7.850;2023-06-22T06:58:11;96695.84;;;23.96;100.00
32761;BME280;19126;47.472;7.850;2023-06-22T07:00:39;96702.47;;;24.21;100.00
32761;BME280;19126;47.472;7.850;2023-06-22T07:03:06;96723.19;;;24.31;100.00
32761;BME280;19126;47.472;7.850;2023-06-22T07:05:34;96689.91;;;24.27;100.00
32761;BME280;19126;47.472;7.850;2023-06-22T07:08:01;96654.28;;;23.99;100.00
32761;BME280;19126;47.472;7.850;2023-06-22T07:10:30;96660.28;;;23.74;100.00
32761;BME280;19126;47.472;7.850;2023-06-22T07:12:58;96658.84;;;23.61;100.00
32761;BME280;19126;47.472;7.850;2023-06-22T07:15:25;96641.19;;;23.65;100.00
32761;BME280;19126;47.472;7.850;2023-06-22T07:17:52;96646.03;;;24.06;100.00
32761;BME280;19126;47.472;7.850;2023-06-22T07:20:20;96640.03;;;24.41;100.00
32761;BME280;19126;47.472;7.850;2023-06-22T07:22:47;96648.50;;;25.02;100.00
32761;BME280;19126;47.472;7.850;2023-06-22T07:25:14;96640.75;;;25.52;100.00
32761;BME280;19126;47.472;7.850;2023-06-22T07:27:58;96639.09;;;25.87;100.00
32761;BME280;19126;47.472;7.850;2023-06-22T07:30:27;96629.97;;;25.78;91.55
32761;BME280;19126;47.472;7.850;2023-06-22T07:32:55;96621.38;;;25.71;90.57
32761;BME280;19126;47.472;7.850;2023-06-22T07:35:22;96632.94;;;25.82;92.86
32761;BME280;19126;47.472;7.850;2023-06-22T07:37:50;96626.50;;;25.67;88.06
32761;BME280;19126;47.472;7.850;2023-06-22T07:40:17;96633.50;;;25.53;92.89
32761;BME280;19126;47.472;7.850;2023-06-22T07:42:44;96620.03;;;25.42;93.76
32761;BME280;19126;47.472;7.850;2023-06-22T07:45:15;96609.03;;;25.49;92.94
32761;BME280;19126;47.472;7.850;2023-06-22T07:47:42;96606.88;;;25.46;90.96
32761;BME280;19126;47.472;7.850;2023-06-22T07:50:10;96599.09;;;25.55;94.67
32761;BME280;19126;47.472;7.850;2023-06-22T07:52:37;96610.06;;;25.69;96.97
32761;BME280;19126;47.472;7.850;2023-06-22T07:55:05;96610.59;;;25.71;98.83
32761;BME280;19126;47.472;7.850;2023-06-22T07:57:33;96600.66;;;25.66;90.64
32761;BME280;19126;47.472;7.850;2023-06-22T08:00:00;96590.94;;;25.81;93.98
32761;BME280;19126;47.472;7.850;2023-06-22T08:02:31;96593.03;;;26.04;94.21
32761;BME280;19126;47.472;7.850;2023-06-22T08:04:58;96595.09;;;26.28;96.12
32761;BME280;19126;47.472;7.850;2023-06-22T08:07:25;96589.69;;;26.39;92.39
32761;BME280;19126;47.472;7.850;2023-06-22T08:09:53;96569.69;;;26.50;97.90
32761;BME280;19126;47.472;7.850;2023-06-22T08:12:20;96564.66;;;26.78;94.66
32761;BME280;19126;47.472;7.850;2023-06-22T08:14:47;96564.53;;;26.99;92.08
32761;BME280;19126;47.472;7.850;2023-06-22T08:17:15;96567.19;;;27.04;94.39
32761;BME280;19126;47.472;7.850;2023-06-22T08:19:44;96572.13;;;27.26;96.66
32761;BME280;19126;47.472;7.850;2023-06-22T08:22:11;96557.41;;;27.43;90.46
32761;BME280;19126;47.472;7.850;2023-06-22T08:24:38;96540.34;;;27.47;87.51
32761;BME280;19126;47.472;7.850;2023-06-22T08:27:09;96524.84;;;27.63;90.53
32761;BME280;19126;47.472;7.850;2023-06-22T08:29:37;96519.44;;;27.88;92.51
32761;BME280;19126;47.472;7.850;2023-06-22T08:32:06;96513.00;;;28.27;88.32
32761;BME280;19126;47.472;7.850;2023-06-22T08:34:33;96507.00;;;28.49;83.51
32761;BME280;19126;47.472;7.850;2023-06-22T08:37:02;96496.69;;;28.51;78.66
32761;BME280;19126;47.472;7.850;2023-06-22T08:39:32;96491.72;;;28.59;81.98
32761;BME280;19126;47.472;7.850;2023-06-22T08:41:59;96484.16;;;28.94;81.39
32761;BME280;19126;47.472;7.850;2023-06-22T08:44:27;96490.75;;;29.35;79.22
32761;BME280;19126;47.472;7.850;2023-06-22T08:46:54;96496.28;;;29.58;77.04
32761;BME280;19126;47.472;7.850;2023-06-22T08:49:21;96491.38;;;29.60;74.49
32761;BME280;19126;47.472;7.850;2023-06-22T08:51:49;96487.38;;;29.57;73.74
32761;BME280;19126;47.472;7.850;2023-06-22T08:54:20;96485.75;;;29.84;76.57
32761;BME280;19126;47.472;7.850;2023-06-22T08:56:47;96478.94;;;29.87;75.69
32761;BME280;19126;47.472;7.850;2023-06-22T08:59:15;96493.59;;;29.72;71.28
32761;BME280;19126;47.472;7.850;2023-06-22T09:01:42;96496.09;;;29.54;74.05
32761;BME280;19126;47.472;7.850;2023-06-22T09:04:11;96489.50;;;29.60;75.72
32761;BME280;19126;47.472;7.850;2023-06-22T09:06:38;96481.97;;;29.57;73.29
32761;BME280;19126;47.472;7.850;2023-06-22T09:09:12;96490.06;;;29.29;74.82
32761;BME280;19126;47.472;7.850;2023-06-22T09:11:41;96484.38;;;29.45;76.18
32761;BME280;19126;47.472;7.850;2023-06-22T09:14:08;96489.19;;;29.48;75.09
32761;BME280;19126;47.472;7.850;2023-06-22T09:16:36;96484.72;;;29.38;78.66
32761;BME280;19126;47.472;7.850;2023-06-22T09:19:03;96469.09;;;29.21;76.37
32761;BME280;19126;47.472;7.850;2023-06-22T09:21:30;96460.75;;;29.03;76.78
32761;BME280;19126;47.472;7.850;2023-06-22T09:23:58;96465.97;;;29.00;76.65
32761;BME280;19126;47.472;7.850;2023-06-22T09:26:25;96487.59;;;29.00;76.39
32761;BME280;19126;47.472;7.850;2023-06-22T09:28:54;96509.75;;;28.83;74.31
32761;BME280;19126;47.472;7.850;2023-06-22T09:31:21;96485.50;;;28.77;72.00
32761;BME280;19126;47.472;7.850;2023-06-22T09:33:52;96450.59;;;28.62;70.76
32761;BME280;19126;47.472;7.850;2023-06-22T09:36:20;96451.44;;;28.43;71.37
32761;BME280;19126;47.472;7.850;2023-06-22T09:38:48;96499.63;;;28.36;71.89
32761;BME280;19126;47.472;7.850;2023-06-22T09:41:21;96483.00;;;28.29;70.43
32761;BME280;19126;47.472;7.850;2023-06-22T09:43:49;96483.44;;;28.17;72.74
32761;BME280;19126;47.472;7.850;2023-06-22T09:46:18;96483.19;;;27.94;71.76
32761;BME280;19126;47.472;7.850;2023-06-22T09:48:47;96465.56;;;27.77;73.28
32761;BME280;19126;47.472;7.850;2023-06-22T09:51:15;96465.22;;;27.60;74.01
32761;BME280;19126;47.472;7.850;2023-06-22T09:53:42;96477.47;;;27.52;75.57
32761;BME280;19126;47.472;7.850;2023-06-22T09:56:10;96458.09;;;27.45;73.89
32761;BME280;19126;47.472;7.850;2023-06-22T09:58:41;96480.25;;;27.42;76.01
32761;BME280;19126;47.472;7.850;2023-06-22T10:01:09;96475.09;;;27.45;77.75
32761;BME280;19126;47.472;7.850;2023-06-22T10:03:38;96490.34;;;27.60;73.26
32761;BME280;19126;47.472;7.850;2023-06-22T10:06:05;96462.72;;;27.69;73.43
32761;BME280;19126;47.472;7.850;2023-06-22T10:08:33;96433.81;;;27.69;76.97
32761;BME280;19126;47.472;7.850;2023-06-22T10:11:00;96429.44;;;27.73;72.45
32761;BME280;19126;47.472;7.850;2023-06-22T10:13:27;96457.47;;;27.77;79.44
32761;BME280;19126;47.472;7.850;2023-06-22T10:15:55;96460.28;;;27.67;80.70
32761;BME280;19126;47.472;7.850;2023-06-22T10:18:22;96477.34;;;27.62;79.74
32761;BME280;19126;47.472;7.850;2023-06-22T10:20:52;96492.06;;;27.51;80.16
32761;BME280;19126;47.472;7.850;2023-06-22T10:23:20;96489.66;;;27.44;79.25
32761;BME280;19126;47.472;7.850;2023-06-22T10:25:48;96511.53;;;27.43;79.05
32761;BME280;19126;47.472;7.850;2023-06-22T10:28:15;96496.19;;;27.38;81.90
32761;BME280;19126;47.472;7.850;2023-06-22T10:30:43;96461.81;;;27.25;80.82
32761;BME280;19126;47.472;7.850;2023-06-22T10:33:11;96488.75;;;27.30;85.21
32761;BME280;19126;47.472;7.850;2023-06-22T10:35:39;96485.88;;;27.45;85.73
32761;BME280;19126;47.472;7.850;2023-06-22T10:38:07;96508.09;;;27.37;81.53
32761;BME280;19126;47.472;7.850;2023-06-22T10:40:35;96511.19;;;27.25;81.33
32761;BME280;19126;47.472;7.850;2023-06-22T10:43:02;96534.72;;;27.14;83.93
32761;BME280;19126;47.472;7.850;2023-06-22T10:45:29;96542.13;;;27.03;81.91
32761;BME280;19126;47.472;7.850;2023-06-22T10:47:57;96540.16;;;27.09;81.81
32761;BME280;19126;47.472;7.850;2023-06-22T10:50:25;96564.00;;;26.97;82.87
32761;BME280;19126;47.472;7.850;2023-06-22T10:52:53;96549.28;;;26.79;82.78
32761;BME280;19126;47.472;7.850;2023-06-22T10:55:22;96547.72;;;26.72;82.65
32761;BME280;19126;47.472;7.850;2023-06-22T10:57:49;96530.25;;;26.65;85.10
32761;BME280;19126;47.472;7.850;2023-06-22T11:00:18;96537.06;;;26.57;88.05
32761;BME280;19126;47.472;7.850;2023-06-22T11:02:47;96557.22;;;26.59;89.09
32761;BME280;19126;47.472;7.850;2023-06-22T11:05:15;96563.44;;;26.60;85.73
32761;BME280;19126;47.472;7.850;2023-06-22T11:07:43;96572.81;;;26.68;81.98
32761;BME280;19126;47.472;7.850;2023-06-22T11:10:10;96578.53;;;26.61;85.47
32761;BME280;19126;47.472;7.850;2023-06-22T11:12:39;96583.94;;;26.56;86.46
32761;BME280;19126;47.472;7.850;2023-06-22T11:15:08;96585.06;;;26.44;86.82
32761;BME280;19126;47.472;7.850;2023-06-22T11:17:36;96575.09;;;26.45;85.90
32761;BME280;19126;47.472;7.850;2023-06-22T11:20:05;96567.81;;;26.45;84.83
32761;BME280;19126;47.472;7.850;2023-06-22T11:22:37;96566.72;;;26.46;92.34
32761;BME280;19126;47.472;7.850;2023-06-22T11:25:06;96553.78;;;26.54;95.22
32761;BME280;19126;47.472;7.850;2023-06-22T11:27:34;96546.72;;;26.63;93.67
32761;BME280;19126;47.472;7.850;2023-06-22T11:30:04;96542.00;;;26.79;87.78
32761;BME280;19126;47.472;7.850;2023-06-22T11:32:31;96561.56;;;27.00;86.72
32761;BME280;19126;47.472;7.850;2023-06-22T11:34:59;96566.47;;;27.23;90.05
32761;BME280;19126;47.472;7.850;2023-06-22T11:37:26;96564.63;;;27.47;81.86
32761;BME280;19126;47.472;7.850;2023-06-22T11:39:53;96568.84;;;27.59;79.78
32761;BME280;19126;47.472;7.850;2023-06-22T11:42:21;96565.53;;;27.67;79.70
32761;BME280;19126;47.472;7.850;2023-06-22T11:44:49;96560.38;;;27.71;75.42
32761;BME280;19126;47.472;7.850;2023-06-22T11:47:18;96564.75;;;27.67;75.08
32761;BME280;19126;47.472;7.850;2023-06-22T11:49:45;96554.84;;;27.57;77.10
32761;BME280;19126;47.472;7.850;2023-06-22T11:52:12;96552.16;;;27.57;81.76
32761;BME280;19126;47.472;7.850;2023-06-22T11:54:40;96555.09;;;27.60;82.03
32761;BME280;19126;47.472;7.850;2023-06-22T11:57:07;96555.66;;;27.57;78.83
32761;BME280;19126;47.472;7.850;2023-06-22T11:59:34;96562.31;;;27.65;85.15
32761;BME280;19126;47.472;7.850;2023-06-22T12:02:02;96572.25;;;27.70;88.47
32761;BME280;19126;47.472;7.850;2023-06-22T12:04:32;96571.97;;;27.71;87.08
32761;BME280;19126;47.472;7.850;2023-06-22T12:07:00;96569.22;;;27.76;89.74
32761;BME280;19126;47.472;7.850;2023-06-22T12:09:28;96564.56;;;27.82;93.13
32761;BME280;19126;47.472;7.850;2023-06-22T12:11:55;96573.75;;;27.81;93.83
32761;BME280;19126;47.472;7.850;2023-06-22T12:14:22;96573.47;;;27.83;94.21
32761;BME280;19126;47.472;7.850;2023-06-22T12:16:49;96568.59;;;27.85;92.64
32761;BME280;19126;47.472;7.850;2023-06-22T12:19:17;96574.28;;;27.83;92.50
32761;BME280;19126;47.472;7.850;2023-06-22T12:21:46;96585.84;;;27.89;91.64
32761;BME280;19126;47.472;7.850;2023-06-22T12:24:13;96580.44;;;27.89;88.55
32761;BME280;19126;47.472;7.850;2023-06-22T12:26:40;96579.56;;;27.93;89.57
32761;BME280;19126;47.472;7.850;2023-06-22T12:29:08;96562.25;;;27.94;83.56
32761;BME280;19126;47.472;7.850;2023-06-22T12:31:36;96550.81;;;27.84;84.33
32761;BME280;19126;47.472;7.850;2023-06-22T12:34:04;96537.00;;;27.85;81.05
32761;BME280;19126;47.472;7.850;2023-06-22T12:36:32;96534.38;;;27.80;82.55
32761;BME280;19126;47.472;7.850;2023-06-22T12:39:00;96530.22;;;27.88;89.97
32761;BME280;19126;47.472;7.850;2023-06-22T12:41:28;96529.53;;;28.01;88.86
32761;BME280;19126;47.472;7.850;2023-06-22T12:43:55;96529.88;;;28.19;91.54
32761;BME280;19126;47.472;7.850;2023-06-22T12:46:22;96532.06;;;28.36;84.90
32761;BME280;19126;47.472;7.850;2023-06-22T12:48:49;96538.78;;;28.77;78.29
32761;BME280;19126;47.472;7.850;2023-06-22T12:51:22;96546.34;;;28.94;71.81
32761;BME280;19126;47.472;7.850;2023-06-22T12:53:49;96545.31;;;29.09;76.87
32761;BME280;19126;47.472;7.850;2023-06-22T12:56:18;96543.53;;;29.18;72.10
32761;BME280;19126;47.472;7.850;2023-06-22T12:58:45;96545.63;;;29.21;71.99
32761;BME280;19126;47.472;7.850;2023-06-22T13:01:13;96550.03;;;29.17;71.53
32761;BME280;19126;47.472;7.850;2023-06-22T13:03:41;96550.03;;;29.17;68.15
32761;BME280;19126;47.472;7.850;2023-06-22T13:06:09;96559.34;;;29.11;66.21